Time;durP1;ratioP1;P1;durP2;ratioP2;P2;SDS_P1;SDS_P2;PMS_P1;PMS_P2;Temp;Humidity;BMP_temperature;BMP_pressure;BME280_temperature;BME280_humidity;BME280_pressure;Samples;Min_cycle;Max_cycle;Signal;HPM_P1;HPM_P2
2021/06/08 00:01:05;;;;;;;21.42;17.45;;;435.70;2355.20;;;;;;5075260;28;20055;-86
2021/06/08 00:03:31;;;;;;;21.38;15.77;;;435.80;2355.20;;;;;;5075308;28;20028;-86
2021/06/08 00:05:58;;;;;;;24.23;18.75;;;435.80;2355.20;;;;;;5075378;28;20085;-86
2021/06/08 00:08:24;;;;;;;19.40;17.17;;;435.60;2355.20;;;;;;5075126;28;20359;-86
2021/06/08 00:10:50;;;;;;;21.42;17.25;;;435.60;2355.20;;;;;;5075434;28;20017;-87
2021/06/08 00:13:16;;;;;;;17.13;15.40;;;435.40;2355.20;;;;;;5074900;28;20044;-86
2021/06/08 00:15:42;;;;;;;18.02;16.15;;;435.60;2355.20;;;;;;5075076;28;20029;-86
2021/06/08 00:18:08;;;;;;;22.13;16.83;;;435.60;2355.20;;;;;;5075116;28;20031;-86
2021/06/08 00:20:34;;;;;;;19.23;16.70;;;435.70;2355.20;;;;;;5074948;28;20021;-84
2021/06/08 00:23:00;;;;;;;19.15;17.00;;;435.70;2355.20;;;;;;5075203;28;20029;-84
2021/06/08 00:25:26;;;;;;;21.33;17.17;;;435.70;2355.20;;;;;;5074797;28;20461;-84
2021/06/08 00:27:52;;;;;;;22.38;17.63;;;435.70;2355.20;;;;;;5074844;28;20027;-84
2021/06/08 00:30:18;;;;;;;23.33;18.70;;;435.80;2355.20;;;;;;5074795;28;20028;-84
2021/06/08 00:32:44;;;;;;;17.75;15.90;;;461.10;2380.80;;;;;;5074943;28;20070;-85
2021/06/08 00:35:11;;;;;;;21.35;16.38;;;435.60;2355.20;;;;;;5074295;28;20191;-84
2021/06/08 00:37:37;;;;;;;21.52;16.65;;;435.30;2355.20;;;;;;5074507;28;20028;-84
2021/06/08 00:40:06;;;;;;;25.00;19.17;;;435.80;2355.20;;;;;;5074592;28;20055;-84
2021/06/08 00:42:36;;;;;;;19.42;17.45;;;435.90;2355.20;;;;;;5075574;28;20028;-84
2021/06/08 00:45:03;;;;;;;21.98;18.95;;;435.60;2355.20;;;;;;5074256;28;20065;-84
2021/06/08 00:47:29;;;;;;;27.23;19.35;;;435.60;2355.20;;;;;;5074528;28;20071;-84
2021/06/08 00:49:54;;;;;;;19.95;17.83;;;435.60;2355.20;;;;;;5074143;28;20052;-84
2021/06/08 00:52:20;;;;;;;27.02;20.40;;;435.50;2355.20;;;;;;5074253;28;20028;-84
2021/06/08 00:54:46;;;;;;;21.65;19.33;;;435.50;2355.20;;;;;;5074209;28;20037;-84
2021/06/08 00:57:12;;;;;;;24.50;18.35;;;435.40;2355.20;;;;;;5073881;28;20350;-85
2021/06/08 00:59:38;;;;;;;22.27;18.88;;;435.40;2355.20;;;;;;5074055;28;20078;-84
2021/06/08 01:02:04;;;;;;;25.08;20.15;;;435.40;2355.20;;;;;;5074118;28;20020;-84
2021/06/08 01:04:29;;;;;;;24.85;19.02;;;435.40;2355.20;;;;;;5073815;28;20032;-84
2021/06/08 01:06:55;;;;;;;24.77;19.98;;;435.30;2355.20;;;;;;5074014;28;20024;-84
2021/06/08 01:09:21;;;;;;;26.58;19.98;;;435.30;2355.20;;;;;;5073785;28;20032;-83
2021/06/08 01:11:47;;;;;;;26.20;19.90;;;435.40;2355.20;;;;;;5073765;28;20024;-84
2021/06/08 01:14:13;;;;;;;23.00;18.67;;;435.30;2355.20;;;;;;5073633;28;20413;-84
2021/06/08 01:16:39;;;;;;;25.73;20.27;;;435.20;2355.20;;;;;;5073715;28;20028;-84
2021/06/08 01:19:05;;;;;;;24.83;20.08;;;435.30;2355.20;;;;;;5073942;28;20090;-84
2021/06/08 01:21:32;;;;;;;23.48;20.10;;;435.30;2355.20;;;;;;5073458;28;20025;-84
2021/06/08 01:23:58;;;;;;;27.80;19.38;;;435.20;2355.20;;;;;;5073524;28;20035;-84
2021/06/08 01:26:26;;;;;;;21.75;18.17;;;435.20;2355.20;;;;;;5073584;28;20112;-83
2021/06/08 01:28:52;;;;;;;24.17;18.58;;;410.40;2355.20;;;;;;5073737;28;20029;-83
2021/06/08 01:31:21;;;;;;;28.50;18.98;;;410.30;2355.20;;;;;;5073484;28;20020;-84
2021/06/08 01:33:47;;;;;;;29.83;19.55;;;435.20;2355.20;;;;;;5073588;28;20036;-85
2021/06/08 01:36:21;;;;;;;22.90;19.80;;;435.20;2355.20;;;;;;5073696;28;20028;-85
2021/06/08 01:38:51;;;;;;;27.17;20.75;;;435.20;2355.20;;;;;;5073523;28;20093;-87
2021/06/08 01:41:20;;;;;;;28.70;21.80;;;410.50;2355.20;;;;;;5073149;28;20032;-87
2021/06/08 01:43:47;;;;;;;31.25;23.90;;;410.50;2355.20;;;;;;5073068;28;20478;-87
2021/06/08 01:46:18;;;;;;;39.22;25.17;;;410.50;2355.20;;;;;;5073133;28;20028;-87
2021/06/08 01:48:44;;;;;;;40.33;27.13;;;435.20;2355.20;;;;;;5073489;28;20067;-88
2021/06/08 01:51:22;;;;;;;44.58;28.05;;;410.50;2355.20;;;;;;5074514;28;20030;-87
2021/06/08 01:54:09;;;;;;;43.83;27.38;;;410.40;2355.20;;;;;;5072785;28;20032;-86
2021/06/08 01:56:38;;;;;;;44.20;26.70;;;410.40;2355.20;;;;;;5072669;28;20035;-87
2021/06/08 01:59:32;;;;;;;35.95;25.38;;;410.30;2355.20;;;;;;5072489;28;20082;-86
2021/06/08 02:02:10;;;;;;;37.72;23.90;;;410.30;2355.20;;;;;;5035870;28;20033;-88
2021/06/08 02:04:41;;;;;;;31.92;22.55;;;410.40;2355.20;;;;;;5073185;28;20035;-87
2021/06/08 02:07:20;;;;;;;36.20;24.50;;;410.40;2355.20;;;;;;5073073;28;20024;-85
2021/06/08 02:09:59;;;;;;;41.33;24.40;;;410.40;2355.20;;;;;;5072952;28;20025;-84
2021/06/08 02:12:26;;;;;;;54.13;25.65;;;410.30;2355.20;;;;;;5072701;28;20024;-84
2021/06/08 02:15:10;;;;;;;46.70;26.83;;;410.30;2355.20;;;;;;5072906;28;20062;-84
2021/06/08 02:17:41;;;;;;;47.08;27.58;;;410.20;2355.20;;;;;;5073186;28;20028;-85
2021/06/08 02:20:15;;;;;;;55.53;29.95;;;410.20;2355.20;;;;;;5072847;28;20033;-85
2021/06/08 02:22:45;;;;;;;47.20;27.73;;;410.10;2355.20;;;;;;5074107;28;20021;-85
2021/06/08 02:25:16;;;;;;;37.58;25.25;;;410.00;2355.20;;;;;;5072915;28;20068;-85
2021/06/08 02:27:42;;;;;;;47.97;26.73;;;410.20;2355.20;;;;;;5072773;28;20438;-85
2021/06/08 02:30:09;;;;;;;50.45;27.00;;;410.10;2355.20;;;;;;5072890;28;20021;-85
2021/06/08 02:32:37;;;;;;;49.25;26.33;;;410.30;2355.20;;;;;;5072736;28;20025;-85
2021/06/08 02:35:05;;;;;;;46.42;28.50;;;410.30;2355.20;;;;;;5072845;28;20033;-85
2021/06/08 02:37:31;;;;;;;50.85;23.75;;;410.30;2355.20;;;;;;5072859;28;20374;-85
2021/06/08 02:39:58;;;;;;;54.85;24.25;;;410.00;2355.20;;;;;;5074114;28;20024;-86
2021/06/08 02:42:24;;;;;;;56.63;23.42;;;410.40;2355.20;;;;;;5072632;28;20112;-85
2021/06/08 02:44:52;;;;;;;35.35;23.25;;;410.30;2355.20;;;;;;5072788;28;20033;-86
2021/06/08 02:47:19;;;;;;;32.65;21.77;;;410.30;2355.20;;;;;;5072759;28;20389;-85
2021/06/08 02:49:47;;;;;;;29.10;19.98;;;410.20;2355.20;;;;;;5072766;28;20029;-86
2021/06/08 02:52:16;;;;;;;31.13;21.67;;;410.10;2355.20;;;;;;5072769;28;20048;-87
2021/06/08 02:54:43;;;;;;;31.80;20.00;;;410.10;2355.20;;;;;;5072609;28;20036;-85
2021/06/08 02:57:10;;;;;;;28.52;19.58;;;410.20;2355.20;;;;;;5072727;28;20487;-85
2021/06/08 02:59:38;;;;;;;28.50;19.50;;;410.20;2355.20;;;;;;5073827;28;20032;-85
2021/06/08 03:02:07;;;;;;;37.22;22.15;;;410.20;2355.20;;;;;;5072496;28;20028;-85
2021/06/08 03:04:57;;;;;;;44.88;26.00;;;410.10;2355.20;;;;;;5072422;28;20033;-86
2021/06/08 03:07:24;;;;;;;61.22;28.27;;;410.00;2355.20;;;;;;5072525;28;20032;-86
2021/06/08 03:09:57;;;;;;;54.63;28.10;;;409.90;2355.20;;;;;;5072284;28;20055;-86
2021/06/08 03:12:28;;;;;;;43.15;25.10;;;409.80;2355.20;;;;;;5072585;28;20074;-86
2021/06/08 03:14:56;;;;;;;40.33;24.80;;;410.00;2355.20;;;;;;5072170;28;20389;-88
2021/06/08 03:17:25;;;;;;;35.60;23.48;;;410.10;2355.20;;;;;;5072363;28;20024;-85
2021/06/08 03:19:53;;;;;;;37.00;23.70;;;410.10;2355.20;;;;;;5072506;28;20063;-85
2021/06/08 03:22:21;;;;;;;41.30;25.20;;;410.00;2355.20;;;;;;5072195;28;20382;-84
2021/06/08 03:24:56;;;;;;;43.22;24.85;;;410.10;2355.20;;;;;;5075060;28;20036;-86
2021/06/08 03:27:23;;;;;;;39.45;25.13;;;410.00;2355.20;;;;;;5075921;28;20032;-86
2021/06/08 03:29:50;;;;;;;39.10;24.38;;;409.80;2355.20;;;;;;5075585;28;20028;-86
2021/06/08 03:32:17;;;;;;;42.28;22.88;;;384.30;2329.60;;;;;;5075868;28;20025;-86
2021/06/08 03:34:44;;;;;;;41.75;22.73;;;409.90;2355.20;;;;;;5075709;28;20052;-86
2021/06/08 03:37:11;;;;;;;35.58;21.60;;;409.90;2355.20;;;;;;5075293;28;20024;-86
2021/06/08 03:39:38;;;;;;;36.38;22.40;;;410.00;2355.20;;;;;;5075548;28;20029;-86
2021/06/08 03:42:05;;;;;;;33.90;22.23;;;410.00;2355.20;;;;;;5076560;28;20028;-86
2021/06/08 03:44:34;;;;;;;40.85;22.63;;;410.00;2355.20;;;;;;5075228;28;20119;-85
2021/06/08 03:47:00;;;;;;;35.45;21.40;;;410.10;2355.20;;;;;;5075573;28;20028;-85
2021/06/08 03:49:26;;;;;;;38.00;22.98;;;410.10;2355.20;;;;;;5075558;28;20031;-86
2021/06/08 03:51:54;;;;;;;41.17;22.10;;;410.40;2355.20;;;;;;5075295;28;20466;-86
2021/06/08 03:54:21;;;;;;;42.80;25.35;;;410.10;2355.20;;;;;;5075483;28;20128;-87
2021/06/08 03:56:50;;;;;;;39.00;23.67;;;409.90;2355.20;;;;;;5075706;28;20428;-86
2021/06/08 03:59:19;;;;;;;36.45;23.67;;;410.00;2355.20;;;;;;5075262;28;20082;-86
2021/06/08 04:01:47;;;;;;;40.30;25.70;;;410.00;2355.20;;;;;;5075543;28;20024;-87
2021/06/08 04:04:14;;;;;;;34.58;22.85;;;410.10;2355.20;;;;;;5075550;28;20123;-87
2021/06/08 04:06:40;;;;;;;38.92;23.35;;;410.10;2355.20;;;;;;5075382;28;20050;-87
2021/06/08 04:09:08;;;;;;;36.78;23.77;;;410.20;2355.20;;;;;;5075408;28;20458;-86
2021/06/08 04:11:35;;;;;;;52.58;26.23;;;410.20;2355.20;;;;;;5075409;28;20024;-86
2021/06/08 04:14:01;;;;;;;47.28;27.55;;;410.00;2355.20;;;;;;5075237;28;20048;-87
2021/06/08 04:16:27;;;;;;;42.33;23.77;;;409.80;2355.20;;;;;;5075271;28;20059;-87
2021/06/08 04:18:53;;;;;;;49.92;27.73;;;409.90;2355.20;;;;;;5075101;28;20061;-87
2021/06/08 04:21:24;;;;;;;41.22;25.13;;;409.90;2355.20;;;;;;5075254;28;20028;-87
2021/06/08 04:24:01;;;;;;;49.53;25.40;;;410.00;2355.20;;;;;;5075288;28;20020;-87
2021/06/08 04:26:28;;;;;;;48.33;26.30;;;410.00;2355.20;;;;;;5076102;28;20032;-86
2021/06/08 04:28:55;;;;;;;50.28;26.45;;;409.90;2355.20;;;;;;5075042;28;20025;-86
2021/06/08 04:31:22;;;;;;;46.63;28.02;;;410.00;2355.20;;;;;;5074691;28;20032;-86
2021/06/08 04:33:48;;;;;;;68.57;26.83;;;410.10;2355.20;;;;;;5074524;28;20032;-86
2021/06/08 04:36:15;;;;;;;52.97;24.88;;;410.00;2355.20;;;;;;5074198;28;20031;-86
2021/06/08 04:38:42;;;;;;;48.65;25.90;;;410.10;2355.20;;;;;;5074653;28;20048;-87
2021/06/08 04:41:08;;;;;;;50.15;27.40;;;410.20;2355.20;;;;;;5074656;28;20538;-86
2021/06/08 04:43:34;;;;;;;65.55;30.25;;;410.00;2355.20;;;;;;5074758;28;20032;-86
2021/06/08 04:46:03;;;;;;;63.88;30.73;;;409.70;2355.20;;;;;;5074549;28;20059;-85
2021/06/08 04:48:29;;;;;;;58.92;29.88;;;409.80;2355.20;;;;;;5074504;28;20548;-86
2021/06/08 04:50:55;;;;;;;52.85;28.67;;;410.00;2355.20;;;;;;5074442;28;20029;-86
2021/06/08 04:53:23;;;;;;;47.38;26.98;;;410.00;2355.20;;;;;;5074604;28;20094;-87
2021/06/08 04:55:49;;;;;;;48.40;28.33;;;410.10;2355.20;;;;;;5074080;28;20028;-86
2021/06/08 04:58:16;;;;;;;51.85;29.80;;;410.10;2355.20;;;;;;5074316;28;20432;-86
2021/06/08 05:01:05;;;;;;;52.72;29.05;;;410.00;2355.20;;;;;;5075347;28;20032;-87
2021/06/08 05:03:39;;;;;;;44.67;26.58;;;410.00;2355.20;;;;;;5074480;28;20028;-86
2021/06/08 05:06:11;;;;;;;47.80;27.50;;;410.20;2355.20;;;;;;5074186;28;20036;-86
2021/06/08 05:08:49;;;;;;;45.60;27.33;;;410.20;2355.20;;;;;;5074344;28;20020;-86
2021/06/08 05:11:19;;;;;;;48.15;29.15;;;410.30;2355.20;;;;;;5074156;28;20063;-86
2021/06/08 05:13:48;;;;;;;57.72;31.80;;;410.30;2355.20;;;;;;5073945;28;20056;-86
2021/06/08 05:16:15;;;;;;;70.20;35.85;;;410.30;2355.20;;;;;;5073920;28;20024;-87
2021/06/08 05:18:53;;;;;;;51.08;29.88;;;410.50;2355.20;;;;;;5073813;28;20020;-87
2021/06/08 05:21:19;;;;;;;48.08;28.92;;;410.30;2355.20;;;;;;5073759;28;20021;-84
2021/06/08 05:23:47;;;;;;;43.15;29.50;;;410.30;2355.20;;;;;;5073707;28;20028;-86
2021/06/08 05:26:13;;;;;;;50.15;32.00;;;435.20;2355.20;;;;;;5073787;28;20044;-86
2021/06/08 05:28:41;;;;;;;49.10;33.03;;;410.40;2355.20;;;;;;5073585;28;20024;-86
2021/06/08 05:31:07;;;;;;;50.28;33.28;;;410.40;2355.20;;;;;;5073508;28;20028;-86
2021/06/08 05:33:33;;;;;;;48.85;32.83;;;410.30;2355.20;;;;;;5073448;28;20052;-86
2021/06/08 05:36:00;;;;;;;59.25;36.47;;;410.30;2355.20;;;;;;5073525;28;20071;-87
2021/06/08 05:38:38;;;;;;;52.22;33.95;;;410.30;2355.20;;;;;;5073680;28;20021;-86
2021/06/08 05:41:05;;;;;;;53.95;36.90;;;410.20;2355.20;;;;;;5073219;28;20025;-86
2021/06/08 05:43:32;;;;;;;55.55;35.58;;;410.20;2355.20;;;;;;5072843;28;20048;-86
2021/06/08 05:45:57;;;;;;;53.45;37.72;;;410.10;2355.20;;;;;;5072490;28;20044;-86
2021/06/08 05:48:26;;;;;;;54.03;39.38;;;410.30;2355.20;;;;;;5074681;28;20025;-87
2021/06/08 05:50:54;;;;;;;52.95;37.70;;;410.20;2355.20;;;;;;5073246;28;20074;-87
2021/06/08 05:53:20;;;;;;;65.03;39.08;;;410.50;2355.20;;;;;;5072800;28;20078;-86
2021/06/08 05:55:50;;;;;;;56.55;37.25;;;435.20;2355.20;;;;;;5072653;28;20032;-84
2021/06/08 05:58:21;;;;;;;57.10;37.80;;;435.20;2355.20;;;;;;5072413;28;20035;-86
2021/06/08 06:00:47;;;;;;;51.33;36.65;;;435.20;2355.20;;;;;;5072883;28;20031;-86
2021/06/08 06:03:14;;;;;;;55.45;36.38;;;435.20;2355.20;;;;;;5073289;28;20055;-86
2021/06/08 06:05:42;;;;;;;51.78;36.35;;;410.20;2355.20;;;;;;5072984;28;20389;-86
2021/06/08 06:08:08;;;;;;;51.42;36.97;;;435.40;2355.20;;;;;;5073070;28;20025;-87
2021/06/08 06:10:34;;;;;;;50.47;36.88;;;435.50;2355.20;;;;;;5074555;28;20181;-86
2021/06/08 06:13:01;;;;;;;53.75;38.90;;;435.50;2355.20;;;;;;5072789;28;20028;-87
2021/06/08 06:15:49;;;;;;;65.15;40.70;;;435.50;2355.20;;;;;;5048157;28;20056;-86
2021/06/08 06:18:17;;;;;;;52.83;39.45;;;435.70;2355.20;;;;;;5073203;28;20040;-86
2021/06/08 06:20:49;;;;;;;54.55;37.92;;;435.90;2355.20;;;;;;5073374;28;20119;-86
2021/06/08 06:23:25;;;;;;;51.00;37.70;;;435.80;2355.20;;;;;;5072901;28;20025;-86
2021/06/08 06:25:53;;;;;;;50.92;38.60;;;435.90;2355.20;;;;;;5072995;28;20032;-86
2021/06/08 06:28:20;;;;;;;50.25;35.03;;;436.00;2355.20;;;;;;5072794;28;20033;-86
2021/06/08 06:30:47;;;;;;;46.80;34.80;;;461.40;2380.80;;;;;;5072870;28;20465;-84
2021/06/08 06:33:13;;;;;;;41.72;34.03;;;461.00;2380.80;;;;;;5072813;28;20081;-83
2021/06/08 06:35:39;;;;;;;45.05;34.05;;;461.10;2380.80;;;;;;5072466;28;20028;-85
2021/06/08 06:38:07;;;;;;;42.53;31.85;;;461.10;2380.80;;;;;;5073114;28;20058;-84
2021/06/08 06:40:35;;;;;;;43.00;32.15;;;461.10;2380.80;;;;;;5072717;28;20024;-83
2021/06/08 06:43:04;;;;;;;37.58;27.45;;;460.90;2380.80;;;;;;5072573;28;20036;-83
2021/06/08 06:45:35;;;;;;;32.95;26.70;;;461.00;2380.80;;;;;;5072590;28;20043;-83
2021/06/08 06:48:03;;;;;;;33.05;26.63;;;461.20;2380.80;;;;;;5072639;28;20020;-84
2021/06/08 06:50:37;;;;;;;30.33;24.17;;;461.20;2380.80;;;;;;5072330;28;20543;-84
2021/06/08 06:53:04;;;;;;;28.92;23.40;;;461.40;2380.80;;;;;;5072892;28;20078;-86
2021/06/08 06:55:32;;;;;;;33.60;25.08;;;461.50;2380.80;;;;;;5072550;28;20115;-83
2021/06/08 06:57:58;;;;;;;30.40;24.05;;;461.50;2380.80;;;;;;5073416;28;20599;-84
2021/06/08 07:00:25;;;;;;;28.75;24.02;;;461.70;2380.80;;;;;;5076068;28;20032;-83
2021/06/08 07:02:53;;;;;;;31.48;24.75;;;486.40;2380.80;;;;;;5076032;28;20037;-84
2021/06/08 07:05:25;;;;;;;31.63;25.65;;;486.40;2380.80;;;;;;5075943;28;20119;-84
2021/06/08 07:07:52;;;;;;;33.50;24.27;;;486.40;2380.80;;;;;;5076298;28;20020;-84
2021/06/08 07:10:25;;;;;;;37.40;27.98;;;486.40;2380.80;;;;;;5076140;28;20078;-84
2021/06/08 07:12:53;;;;;;;34.75;26.35;;;486.40;2380.80;;;;;;5076229;28;20024;-84
2021/06/08 07:15:24;;;;;;;39.83;26.95;;;486.40;2380.80;;;;;;5076391;28;20478;-86
2021/06/08 07:17:50;;;;;;;34.47;27.95;;;486.40;2380.80;;;;;;5076064;28;20024;-84
2021/06/08 07:20:18;;;;;;;37.97;27.95;;;486.40;2380.80;;;;;;5075874;28;20388;-84
2021/06/08 07:22:46;;;;;;;37.38;27.23;;;486.60;2380.80;;;;;;5076087;28;20115;-84
2021/06/08 07:25:14;;;;;;;31.48;26.42;;;486.90;2380.80;;;;;;5075583;28;20060;-83
2021/06/08 07:27:40;;;;;;;30.63;24.63;;;487.10;2380.80;;;;;;5076007;28;20024;-84
2021/06/08 07:30:08;;;;;;;28.30;24.55;;;512.00;2380.80;;;;;;5075728;28;20025;-83
2021/06/08 07:32:45;;;;;;;32.28;26.35;;;487.30;2380.80;;;;;;5075478;28;20025;-83
2021/06/08 07:35:33;;;;;;;30.83;24.58;;;487.00;2380.80;;;;;;5075619;28;20473;-84
2021/06/08 07:38:07;;;;;;;30.05;24.20;;;487.10;2380.80;;;;;;5075105;28;20029;-83
2021/06/08 07:40:41;;;;;;;28.60;22.80;;;487.20;2380.80;;;;;;5075530;28;20111;-83
2021/06/08 07:43:10;;;;;;;30.63;24.77;;;512.00;2380.80;;;;;;5076705;28;20082;-83
2021/06/08 07:45:48;;;;;;;26.23;23.33;;;487.30;2380.80;;;;;;5075087;28;20040;-84
2021/06/08 07:48:17;;;;;;;33.40;23.55;;;487.30;2380.80;;;;;;5074968;28;20085;-80
2021/06/08 07:50:49;;;;;;;26.65;23.30;;;487.30;2380.80;;;;;;5074846;28;20028;-79
2021/06/08 07:53:19;;;;;;;25.88;23.17;;;512.00;2380.80;;;;;;5074817;28;20051;-80
2021/06/08 07:55:46;;;;;;;25.50;22.42;;;512.00;2380.80;;;;;;5074960;28;20063;-79
2021/06/08 07:58:13;;;;;;;27.65;22.60;;;512.50;2380.80;;;;;;5074646;28;20020;-79
2021/06/08 08:00:39;;;;;;;26.40;23.58;;;512.70;2380.80;;;;;;5073215;28;20108;-81
2021/06/08 08:05:50;;;;;;;30.05;23.40;;;537.80;2406.40;;;;;;5072721;28;20085;-80
2021/06/08 08:08:20;;;;;;;27.55;22.15;;;538.10;2406.40;;;;;;5073568;28;20031;-80
2021/06/08 08:10:50;;;;;;;22.30;19.90;;;538.00;2406.40;;;;;;5073418;28;20442;-79
2021/06/08 08:13:22;;;;;;;24.30;19.38;;;538.20;2406.40;;;;;;5073536;28;20086;-79
2021/06/08 08:15:50;;;;;;;21.63;19.33;;;538.50;2406.40;;;;;;5074287;28;20082;-80
2021/06/08 08:18:17;;;;;;;20.27;17.73;;;563.40;2432.00;;;;;;5074196;28;20029;-79
2021/06/08 08:20:44;;;;;;;22.60;19.58;;;563.40;2432.00;;;;;;5073877;28;20029;-79
2021/06/08 08:23:10;;;;;;;24.08;18.35;;;563.60;2432.00;;;;;;5074183;28;20024;-79
2021/06/08 08:25:36;;;;;;;23.40;19.80;;;563.50;2432.00;;;;;;5075218;28;20040;-79
2021/06/08 08:28:02;;;;;;;22.02;18.80;;;563.80;2432.00;;;;;;5074949;28;20039;-81
2021/06/08 08:30:28;;;;;;;20.38;16.35;;;588.80;2432.00;;;;;;5073678;28;20028;-79
2021/06/08 08:32:54;;;;;;;21.58;17.20;;;588.90;2432.00;;;;;;5073842;28;20047;-78
2021/06/08 08:35:21;;;;;;;20.90;15.82;;;589.00;2432.00;;;;;;5073517;28;20031;-78
2021/06/08 08:37:46;;;;;;;19.00;16.13;;;589.30;2432.00;;;;;;5073227;28;20052;-79
2021/06/08 08:40:12;;;;;;;17.42;15.52;;;589.00;2432.00;;;;;;5073691;28;20454;-80
2021/06/08 08:42:39;;;;;;;18.55;15.05;;;589.00;2432.00;;;;;;5072456;28;20115;-78
2021/06/08 08:45:05;;;;;;;18.52;13.88;;;589.30;2432.00;;;;;;5073143;28;20041;-80
2021/06/08 08:47:32;;;;;;;17.70;14.18;;;589.40;2432.00;;;;;;5073077;28;20082;-79
2021/06/08 08:49:58;;;;;;;18.98;14.55;;;589.30;2432.00;;;;;;5074129;28;20028;-80
2021/06/08 08:52:24;;;;;;;16.85;13.77;;;589.60;2432.00;;;;;;5072946;28;20366;-80
2021/06/08 08:54:50;;;;;;;16.90;14.63;;;614.40;2432.00;;;;;;5073564;28;20078;-79
2021/06/08 08:57:19;;;;;;;17.55;14.60;;;614.60;2432.00;;;;;;5072642;28;20089;-80
2021/06/08 08:59:45;;;;;;;17.60;13.02;;;614.70;2432.00;;;;;;5073306;28;20082;-79
2021/06/08 09:02:11;;;;;;;16.35;13.85;;;614.80;2432.00;;;;;;5074224;28;20028;-79
2021/06/08 09:04:38;;;;;;;19.45;14.73;;;615.20;2432.00;;;;;;5072989;28;20398;-79
2021/06/08 09:07:04;;;;;;;14.80;13.10;;;640.00;2432.00;;;;;;5072764;28;20032;-79
2021/06/08 09:09:30;;;;;;;17.48;13.95;;;615.20;2432.00;;;;;;5072535;28;20035;-80
2021/06/08 09:11:56;;;;;;;19.00;13.35;;;640.00;2432.00;;;;;;5072231;28;20025;-80
2021/06/08 09:14:22;;;;;;;15.48;12.65;;;640.10;2432.00;;;;;;5074209;28;20052;-80
2021/06/08 09:16:48;;;;;;;15.45;13.00;;;640.20;2432.00;;;;;;5074115;28;20028;-81
2021/06/08 09:19:14;;;;;;;13.57;12.18;;;640.60;2432.00;;;;;;5074335;28;20024;-81
2021/06/08 09:21:43;;;;;;;12.88;11.15;;;640.60;2432.00;;;;;;5072218;28;20031;-82
2021/06/08 09:24:24;;;;;;;15.95;11.73;;;640.90;2432.00;;;;;;5072855;28;20029;-81
2021/06/08 09:26:57;;;;;;;11.60;10.35;;;665.70;2432.00;;;;;;5072625;28;20397;-80
2021/06/08 09:29:40;;;;;;;12.80;10.30;;;665.60;2432.00;;;;;;5072885;28;20378;-82
2021/06/08 09:32:15;;;;;;;13.18;10.65;;;665.90;2432.00;;;;;;5072818;28;20093;-81
2021/06/08 09:34:51;;;;;;;12.90;10.70;;;666.20;2432.00;;;;;;5073081;28;20029;-82
2021/06/08 09:37:29;;;;;;;11.65;10.45;;;666.50;2432.00;;;;;;5072814;28;20031;-81
2021/06/08 09:39:54;;;;;;;13.45;12.00;;;691.20;2432.00;;;;;;5072978;28;20028;-82
2021/06/08 09:42:26;;;;;;;16.25;14.57;;;666.50;2432.00;;;;;;5072302;28;20024;-81
2021/06/08 09:44:52;;;;;;;14.73;12.00;;;666.50;2432.00;;;;;;5072560;28;20050;-80
2021/06/08 09:47:30;;;;;;;17.63;9.68;;;691.30;2432.00;;;;;;5072957;28;20085;-82
2021/06/08 09:49:58;;;;;;;12.57;10.00;;;691.30;2432.00;;;;;;5072723;28;20035;-79
2021/06/08 09:52:23;;;;;;;12.20;9.70;;;666.50;2432.00;;;;;;5073372;28;20031;-77
2021/06/08 09:54:52;;;;;;;13.95;9.32;;;666.40;2432.00;;;;;;5072346;28;20024;-79
2021/06/08 09:57:18;;;;;;;14.98;11.73;;;691.20;2432.00;;;;;;5072378;28;20029;-82
2021/06/08 09:59:50;;;;;;;16.20;9.65;;;691.50;2432.00;;;;;;5072776;28;20111;-82
2021/06/08 10:02:38;;;;;;;17.65;10.32;;;691.60;2432.00;;;;;;5072639;28;20029;-83
2021/06/08 10:05:28;;;;;;;8.57;7.47;;;692.00;2432.00;;;;;;5072262;28;20436;-83
2021/06/08 10:08:07;;;;;;;14.55;8.75;;;692.10;2432.00;;;;;;5072644;28;20265;-83
2021/06/08 10:10:46;;;;;;;14.02;7.60;;;717.10;2432.00;;;;;;5073203;28;20036;-84
2021/06/08 10:13:16;;;;;;;9.60;7.32;;;716.90;2380.80;;;;;;5072363;28;20056;-83
2021/06/08 10:16:04;;;;;;;16.15;9.50;;;716.80;2380.80;;;;;;5072895;28;20120;-84
2021/06/08 10:18:50;;;;;;;18.17;9.45;;;717.20;2380.80;;;;;;5073024;28;20127;-83
2021/06/08 10:21:31;;;;;;;16.02;11.75;;;717.50;2278.40;;;;;;5072487;28;20048;-84
2021/06/08 10:24:10;;;;;;;13.10;10.13;;;717.60;2252.80;;;;;;5072950;28;20029;-84
2021/06/08 10:26:37;;;;;;;15.18;10.77;;;742.50;2278.40;;;;;;5072642;28;20040;-83
2021/06/08 10:29:06;;;;;;;15.90;10.32;;;742.60;2278.40;;;;;;5072919;28;20021;-81
2021/06/08 10:31:34;;;;;;;13.02;7.90;;;742.80;2201.60;;;;;;5073083;28;20024;-83
2021/06/08 10:34:00;;;;;;;10.85;7.60;;;742.50;2150.40;;;;;;5075879;28;20016;-83
2021/06/08 10:36:26;;;;;;;14.80;8.13;;;742.40;2099.20;;;;;;5076649;28;20017;-82
2021/06/08 10:38:52;;;;;;;12.38;6.90;;;742.40;2176.00;;;;;;5076588;28;20500;-83
2021/06/08 10:41:18;;;;;;;19.55;9.25;;;717.40;2150.40;;;;;;5076732;28;20363;-84
2021/06/08 10:43:45;;;;;;;12.25;8.38;;;717.00;2176.00;;;;;;5076875;28;20539;-84
2021/06/08 10:46:29;;;;;;;9.30;5.88;;;692.10;2201.60;;;;;;5076846;28;20595;-84
2021/06/08 10:48:55;;;;;;;16.77;7.75;;;691.80;2150.40;;;;;;5076036;28;20028;-83
2021/06/08 10:51:23;;;;;;;10.45;5.65;;;716.90;2150.40;;;;;;5076303;28;20025;-85
2021/06/08 10:53:52;;;;;;;16.30;9.73;;;716.90;2099.20;;;;;;5076267;28;20089;-84
2021/06/08 10:56:32;;;;;;;24.00;8.25;;;692.00;2124.80;;;;;;5076393;28;20055;-83
2021/06/08 10:59:09;;;;;;;10.98;6.72;;;716.90;2176.00;;;;;;5076404;28;20028;-84
2021/06/08 11:04:48;;;;;;;9.45;4.63;;;717.30;2022.40;;;;;;5077597;28;20024;-85
2021/06/08 11:07:14;;;;;;;6.68;5.07;;;717.10;1894.40;;;;;;5076491;28;20020;-84
2021/06/08 11:09:40;;;;;;;8.20;6.90;;;717.30;1945.60;;;;;;5076338;28;20016;-85
2021/06/08 11:12:09;;;;;;;8.98;4.60;;;742.50;2073.60;;;;;;5076257;28;20028;-83
2021/06/08 11:17:04;;;;;;;6.10;3.40;;;742.60;1766.40;;;;;;5077129;28;20024;-84
2021/06/08 11:19:49;;;;;;;8.25;4.40;;;717.60;1689.60;;;;;;5075808;28;20027;-85
2021/06/08 11:22:17;;;;;;;10.98;7.07;;;717.60;1740.80;;;;;;5076223;28;20020;-85
2021/06/08 11:24:45;;;;;;;7.20;4.47;;;742.40;1868.80;;;;;;5075942;28;20028;-85
2021/06/08 11:27:12;;;;;;;12.40;4.03;;;717.50;1766.40;;;;;;5076080;28;20021;-84
2021/06/08 11:29:55;;;;;;;7.70;3.33;;;742.80;1766.40;;;;;;5075487;28;20047;-85
2021/06/08 11:32:31;;;;;;;14.23;9.43;;;743.20;1689.60;;;;;;5074766;28;20028;-84
2021/06/08 11:35:34;;;;;;;8.98;5.53;;;768.10;1587.20;;;;;;5075912;28;20052;-84
2021/06/08 11:38:05;;;;;;;5.53;4.20;;;743.10;1638.40;;;;;;5069167;28;20746;-80
2021/06/08 11:40:40;;;;;;;4.77;3.93;;;743.30;1638.40;;;;;;5075340;28;20055;-84
2021/06/08 11:43:26;;;;;;;6.72;3.15;;;743.20;1612.80;;;;;;5073687;28;20031;-85
2021/06/08 11:46:05;;;;;;;9.18;4.07;;;768.30;1561.60;;;;;;5074528;28;20028;-86
2021/06/08 11:48:37;;;;;;;8.25;3.88;;;768.90;1510.40;;;;;;5075521;28;20016;-86
2021/06/08 11:51:15;;;;;;;7.45;3.33;;;768.50;1484.80;;;;;;5075227;28;20020;-86
2021/06/08 11:54:10;;;;;;;7.63;3.83;;;768.90;1433.60;;;;;;5075659;28;20028;-86
2021/06/08 11:57:00;;;;;;;6.57;2.97;;;793.80;1484.80;;;;;;5107263;28;20036;-86
2021/06/08 11:59:46;;;;;;;6.63;3.38;;;794.10;1408.00;;;;;;5075569;28;20600;-85
2021/06/08 12:02:46;;;;;;;5.22;3.13;;;768.80;1459.20;;;;;;5064091;28;20032;-87
2021/06/08 12:05:24;;;;;;;5.03;2.90;;;768.90;1408.00;;;;;;5075231;28;20025;-86
2021/06/08 12:08:02;;;;;;;5.32;3.03;;;743.30;1510.40;;;;;;5075590;28;20020;-86
2021/06/08 12:10:38;;;;;;;7.03;3.38;;;742.60;1612.80;;;;;;5075590;28;20028;-87
2021/06/08 12:13:05;;;;;;;10.43;3.40;;;742.90;1587.20;;;;;;5074743;28;20474;-82
2021/06/08 12:15:43;;;;;;;11.65;3.92;;;743.30;1587.20;;;;;;5074951;28;20448;-81
2021/06/08 12:18:27;;;;;;;10.13;2.92;;;768.30;1561.60;;;;;;5075308;28;20070;-80
2021/06/08 12:20:54;;;;;;;8.65;4.38;;;768.30;1587.20;;;;;;5074118;28;20435;-79
2021/06/08 12:23:32;;;;;;;5.78;3.40;;;743.20;1587.20;;;;;;5074356;28;20123;-80